Time;durP1;ratioP1;P1;durP2;ratioP2;P2;SDS_P1;SDS_P2;PMS_P1;PMS_P2;Temp;Humidity;BMP_temperature;BMP_pressure;BME280_temperature;BME280_humidity;BME280_pressure;Samples;Min_cycle;Max_cycle;Signal;HPM_P1;HPM_P2
2023/01/01 00:00:16;;;;;;;14.77;4.78;;;;;;;;;;5086469;28;20044;-69
2023/01/01 00:02:43;;;;;;;21.55;5.22;;;;;;;;;;5085540;28;20055;-69
2023/01/01 00:05:11;;;;;;;21.92;5.20;;;;;;;;;;5065472;28;20763;-69
2023/01/01 00:07:38;;;;;;;18.48;5.63;;;;;;;;;;5087849;28;20047;-69
2023/01/01 00:12:52;;;;;;;21.23;7.30;;;;;;;;;;5085492;28;20109;-70
2023/01/01 00:15:19;;;;;;;33.83;8.88;;;;;;;;;;5087790;28;20495;-70
2023/01/01 00:17:46;;;;;;;30.83;9.32;;;;;;;;;;5083324;28;20048;-69
2023/01/01 00:20:14;;;;;;;36.00;10.82;;;;;;;;;;5085661;28;20059;-70
2023/01/01 00:22:41;;;;;;;30.70;11.05;;;;;;;;;;5085991;28;20071;-69
2023/01/01 00:25:09;;;;;;;31.02;11.82;;;;;;;;;;5083825;28;20135;-69
2023/01/01 00:27:36;;;;;;;34.35;12.73;;;;;;;;;;5082557;28;20051;-71
2023/01/01 00:30:05;;;;;;;34.38;11.60;;;;;;;;;;5077978;28;20072;-69
2023/01/01 00:32:32;;;;;;;26.58;10.73;;;;;;;;;;5080420;28;20060;-70
2023/01/01 00:34:59;;;;;;;29.50;9.73;;;;;;;;;;5084638;28;20062;-69
2023/01/01 00:37:28;;;;;;;23.05;7.68;;;;;;;;;;5084228;28;20380;-69
2023/01/01 00:39:55;;;;;;;30.40;8.70;;;;;;;;;;5085627;28;20110;-69
2023/01/01 00:42:22;;;;;;;24.42;8.82;;;;;;;;;;5087228;28;20051;-69
2023/01/01 00:44:49;;;;;;;28.00;8.68;;;;;;;;;;5081840;28;20075;-70
2023/01/01 00:47:18;;;;;;;24.27;8.00;;;;;;;;;;5081931;28;20079;-70
2023/01/01 00:49:45;;;;;;;31.35;6.97;;;;;;;;;;5080300;28;20066;-70
2023/01/01 00:52:12;;;;;;;27.00;6.78;;;;;;;;;;5084480;28;20043;-70
2023/01/01 00:54:40;;;;;;;22.98;5.57;;;;;;;;;;5066274;28;20048;-69
2023/01/01 00:57:07;;;;;;;22.77;5.40;;;;;;;;;;5086235;28;20123;-69
2023/01/01 00:59:34;;;;;;;20.02;4.60;;;;;;;;;;5081581;28;20056;-69
2023/01/01 01:02:01;;;;;;;22.13;4.88;;;;;;;;;;5082628;28;20105;-69
2023/01/01 01:04:30;;;;;;;20.20;4.03;;;;;;;;;;5081495;28;20101;-69
2023/01/01 01:06:57;;;;;;;23.30;4.28;;;;;;;;;;5082664;28;20457;-69
2023/01/01 01:09:25;;;;;;;28.80;4.22;;;;;;;;;;5083759;28;20060;-69
2023/01/01 01:11:52;;;;;;;20.25;4.63;;;;;;;;;;5084099;28;20051;-69
2023/01/01 01:14:19;;;;;;;27.88;4.55;;;;;;;;;;5083208;28;20103;-69
2023/01/01 01:16:46;;;;;;;29.05;4.10;;;;;;;;;;5085215;28;20052;-69
2023/01/01 01:19:17;;;;;;;19.65;4.22;;;;;;;;;;5073690;28;20044;-68
2023/01/01 01:21:47;;;;;;;23.52;3.92;;;;;;;;;;5061612;28;20126;-69
2023/01/01 01:24:14;;;;;;;21.92;4.20;;;;;;;;;;5075766;28;20064;-72
2023/01/01 01:26:42;;;;;;;32.05;4.60;;;;;;;;;;5077715;28;20059;-69
2023/01/01 01:29:09;;;;;;;31.02;4.97;;;;;;;;;;5081527;28;20048;-71
2023/01/01 01:31:36;;;;;;;28.48;5.07;;;;;;;;;;5081869;28;20049;-73
2023/01/01 01:34:04;;;;;;;29.30;5.47;;;;;;;;;;5065280;28;20059;-72
2023/01/01 01:36:31;;;;;;;27.90;6.10;;;;;;;;;;5064507;28;20051;-70
2023/01/01 01:38:59;;;;;;;34.05;6.88;;;;;;;;;;5064151;28;20442;-70
2023/01/01 01:41:27;;;;;;;31.00;5.88;;;;;;;;;;5061700;28;20052;-70
2023/01/01 01:43:56;;;;;;;29.58;4.90;;;;;;;;;;5074954;28;20059;-70
2023/01/01 01:46:27;;;;;;;32.43;6.80;;;;;;;;;;5080887;28;20071;-71
2023/01/01 01:48:55;;;;;;;33.50;5.25;;;;;;;;;;5079582;28;20052;-71
2023/01/01 01:51:25;;;;;;;26.15;4.95;;;;;;;;;;5081307;28;20041;-70
2023/01/01 01:53:56;;;;;;;32.88;5.57;;;;;;;;;;5075580;28;20049;-69
2023/01/01 01:56:28;;;;;;;31.58;5.25;;;;;;;;;;5065132;28;20067;-71
2023/01/01 01:58:55;;;;;;;32.92;4.80;;;;;;;;;;5078485;28;20051;-70
2023/01/01 02:01:22;;;;;;;36.75;5.80;;;;;;;;;;5076404;28;20040;-70
2023/01/01 02:03:51;;;;;;;31.25;5.68;;;;;;;;;;5080374;28;20481;-71
2023/01/01 02:06:19;;;;;;;26.88;4.82;;;;;;;;;;5081956;28;20053;-71
2023/01/01 02:08:46;;;;;;;32.28;5.03;;;;;;;;;;5077198;28;20044;-71
2023/01/01 02:11:14;;;;;;;28.60;5.43;;;;;;;;;;5061278;28;20056;-70
2023/01/01 02:13:42;;;;;;;25.75;4.80;;;;;;;;;;5086647;28;20078;-69
2023/01/01 02:16:13;;;;;;;28.83;5.43;;;;;;;;;;5083517;28;20047;-69
2023/01/01 02:18:43;;;;;;;25.75;4.97;;;;;;;;;;5082562;28;20044;-71
2023/01/01 02:21:14;;;;;;;27.52;4.55;;;;;;;;;;5082315;28;20048;-68
2023/01/01 02:23:54;;;;;;;22.77;4.35;;;;;;;;;;5082304;28;20105;-70
2023/01/01 02:26:41;;;;;;;30.83;4.97;;;;;;;;;;5082197;28;20048;-70
2023/01/01 02:29:12;;;;;;;26.85;4.50;;;;;;;;;;5067405;28;20100;-71
2023/01/01 02:31:43;;;;;;;32.22;5.15;;;;;;;;;;5080245;28;20048;-70
2023/01/01 02:34:13;;;;;;;19.40;4.05;;;;;;;;;;5080289;28;20052;-71
2023/01/01 02:36:42;;;;;;;17.50;3.95;;;;;;;;;;5080564;28;20049;-69
2023/01/01 02:39:11;;;;;;;26.40;5.18;;;;;;;;;;5072054;28;20041;-69
2023/01/01 02:41:41;;;;;;;23.73;4.60;;;;;;;;;;5079036;28;20048;-70
2023/01/01 02:44:08;;;;;;;29.75;5.50;;;;;;;;;;5059682;28;20610;-71
2023/01/01 02:46:37;;;;;;;28.58;5.38;;;;;;;;;;5080750;28;20410;-70
2023/01/01 02:49:04;;;;;;;23.48;4.55;;;;;;;;;;5084587;28;20518;-70
2023/01/01 02:51:36;;;;;;;24.83;4.22;;;;;;;;;;5083695;28;20059;-70
2023/01/01 02:54:09;;;;;;;38.05;5.40;;;;;;;;;;5072740;28;20044;-71
2023/01/01 02:56:38;;;;;;;26.27;4.65;;;;;;;;;;5080189;28;21249;-73
2023/01/01 03:02:05;;;;;;;19.00;4.60;;;;;;;;;;5076353;28;20744;-70
2023/01/01 03:04:36;;;;;;;30.33;5.95;;;;;;;;;;5058813;28;20048;-70
2023/01/01 03:07:11;;;;;;;22.80;5.35;;;;;;;;;;5080925;28;20052;-71
2023/01/01 03:09:43;;;;;;;24.45;5.18;;;;;;;;;;5082029;28;20113;-70
2023/01/01 03:12:16;;;;;;;23.05;4.28;;;;;;;;;;5079643;28;20048;-72
2023/01/01 03:14:46;;;;;;;26.77;4.35;;;;;;;;;;5077587;28;20052;-70
2023/01/01 03:17:19;;;;;;;25.63;4.75;;;;;;;;;;5082968;28;20497;-70
2023/01/01 03:19:48;;;;;;;23.05;4.57;;;;;;;;;;5086559;28;20047;-69
2023/01/01 03:22:16;;;;;;;23.58;4.80;;;;;;;;;;5083331;28;20048;-71
2023/01/01 03:24:45;;;;;;;22.40;3.70;;;;;;;;;;5090265;28;20048;-70
2023/01/01 03:27:15;;;;;;;24.25;4.28;;;;;;;;;;5085468;28;20253;-68
2023/01/01 03:29:43;;;;;;;29.30;4.80;;;;;;;;;;5089078;28;20059;-69
2023/01/01 03:32:13;;;;;;;26.08;4.40;;;;;;;;;;5085541;28;20048;-68
2023/01/01 03:34:44;;;;;;;24.00;4.28;;;;;;;;;;5086566;28;20048;-69
2023/01/01 03:37:13;;;;;;;23.90;4.13;;;;;;;;;;5084587;28;20099;-69
2023/01/01 03:39:42;;;;;;;26.35;4.70;;;;;;;;;;5084135;28;20344;-69
2023/01/01 03:42:13;;;;;;;24.95;4.47;;;;;;;;;;5083180;28;20052;-69
2023/01/01 03:44:44;;;;;;;35.25;5.85;;;;;;;;;;5085596;28;20048;-70
2023/01/01 03:47:11;;;;;;;28.88;4.68;;;;;;;;;;5085258;28;20075;-69
2023/01/01 03:49:39;;;;;;;32.97;5.85;;;;;;;;;;5082293;28;20052;-70
2023/01/01 03:52:15;;;;;;;32.10;4.75;;;;;;;;;;5087129;28;20056;-69
2023/01/01 03:54:46;;;;;;;26.85;5.55;;;;;;;;;;5081568;28;20076;-70
2023/01/01 03:57:18;;;;;;;30.48;4.45;;;;;;;;;;5083326;28;20406;-70
2023/01/01 03:59:50;;;;;;;29.13;5.22;;;;;;;;;;5083849;28;20044;-69
2023/01/01 04:02:19;;;;;;;22.90;4.68;;;;;;;;;;5067306;28;20063;-70
2023/01/01 04:04:47;;;;;;;37.40;5.82;;;;;;;;;;5080523;28;20053;-68
2023/01/01 04:07:16;;;;;;;35.55;5.45;;;;;;;;;;5064261;28;20064;-69
2023/01/01 04:09:47;;;;;;;26.73;4.60;;;;;;;;;;5086516;28;20044;-69
2023/01/01 04:12:16;;;;;;;25.60;4.28;;;;;;;;;;5086866;28;20048;-68
2023/01/01 04:14:44;;;;;;;32.03;4.80;;;;;;;;;;5088200;28;20135;-70
2023/01/01 04:17:12;;;;;;;29.13;4.97;;;;;;;;;;5087934;28;20138;-68
2023/01/01 04:19:40;;;;;;;31.27;5.57;;;;;;;;;;5088165;28;20039;-70
2023/01/01 04:22:07;;;;;;;35.35;5.60;;;;;;;;;;5086382;28;20127;-69
2023/01/01 04:24:35;;;;;;;32.97;5.88;;;;;;;;;;5085172;28;20102;-71
2023/01/01 04:27:03;;;;;;;30.75;4.32;;;;;;;;;;5082609;28;20055;-69
2023/01/01 04:29:30;;;;;;;19.90;4.55;;;;;;;;;;5063411;28;20053;-68
2023/01/01 04:31:57;;;;;;;24.95;4.07;;;;;;;;;;5085725;28;20513;-69
2023/01/01 04:34:25;;;;;;;23.27;3.67;;;;;;;;;;5087316;28;20048;-68
2023/01/01 04:36:52;;;;;;;23.95;4.50;;;;;;;;;;5088020;28;20486;-69
2023/01/01 04:39:19;;;;;;;27.13;3.55;;;;;;;;;;5088257;28;20068;-68
2023/01/01 04:41:48;;;;;;;20.05;3.30;;;;;;;;;;5082472;28;20505;-71
2023/01/01 04:44:16;;;;;;;29.00;4.22;;;;;;;;;;5086010;28;20047;-68
2023/01/01 04:46:43;;;;;;;18.88;3.08;;;;;;;;;;5080866;28;20036;-68
2023/01/01 04:49:10;;;;;;;17.65;3.58;;;;;;;;;;5070355;28;20036;-68
2023/01/01 04:51:37;;;;;;;27.83;4.10;;;;;;;;;;5084610;28;20051;-70
2023/01/01 04:54:05;;;;;;;25.65;3.78;;;;;;;;;;5086939;28;20048;-68
2023/01/01 04:56:32;;;;;;;26.23;5.15;;;;;;;;;;5083676;28;20095;-69
2023/01/01 04:59:00;;;;;;;31.83;5.32;;;;;;;;;;5081479;28;20785;-69
2023/01/01 05:01:28;;;;;;;27.27;4.32;;;;;;;;;;5086552;28;20055;-69
2023/01/01 05:03:56;;;;;;;35.10;5.88;;;;;;;;;;5085062;28;20055;-68
2023/01/01 05:06:24;;;;;;;25.88;4.65;;;;;;;;;;5084119;28;20044;-69
2023/01/01 05:08:53;;;;;;;29.05;4.20;;;;;;;;;;5063549;28;20554;-69
2023/01/01 05:11:21;;;;;;;30.08;4.70;;;;;;;;;;5086420;28;20136;-69
2023/01/01 05:13:49;;;;;;;34.47;4.30;;;;;;;;;;5078323;28;20056;-68
2023/01/01 05:16:18;;;;;;;34.13;4.72;;;;;;;;;;5080956;28;20506;-69
2023/01/01 05:18:46;;;;;;;37.80;5.13;;;;;;;;;;5066739;28;20044;-69
2023/01/01 05:21:14;;;;;;;28.73;4.35;;;;;;;;;;5078716;28;20053;-69
2023/01/01 05:23:42;;;;;;;26.92;4.15;;;;;;;;;;5086145;28;20055;-68
2023/01/01 05:26:10;;;;;;;35.50;5.45;;;;;;;;;;5083184;28;20051;-69
2023/01/01 05:28:38;;;;;;;28.02;4.60;;;;;;;;;;5082472;28;20184;-69
2023/01/01 05:31:06;;;;;;;31.27;4.85;;;;;;;;;;5084187;28;20055;-68
2023/01/01 05:33:35;;;;;;;34.65;5.53;;;;;;;;;;5083664;28;20044;-68
2023/01/01 05:36:02;;;;;;;30.52;4.18;;;;;;;;;;5080724;28;20040;-68
2023/01/01 05:38:29;;;;;;;26.25;4.30;;;;;;;;;;5084033;28;20067;-69
2023/01/01 05:40:57;;;;;;;36.72;5.72;;;;;;;;;;5064340;28;20659;-69
2023/01/01 05:43:24;;;;;;;37.38;4.72;;;;;;;;;;5082792;28;20055;-70
2023/01/01 05:46:00;;;;;;;28.95;3.70;;;;;;;;;;5083233;28;20568;-69
2023/01/01 05:48:27;;;;;;;25.30;4.03;;;;;;;;;;5081750;28;20131;-69
2023/01/01 05:51:01;;;;;;;25.85;3.65;;;;;;;;;;5083529;28;20469;-69
2023/01/01 05:53:29;;;;;;;22.38;3.45;;;;;;;;;;5075468;28;20048;-70
2023/01/01 05:55:56;;;;;;;28.02;3.85;;;;;;;;;;5083313;28;20071;-68
2023/01/01 05:58:24;;;;;;;27.17;4.10;;;;;;;;;;5066205;28;21271;-68
2023/01/01 06:00:51;;;;;;;21.55;3.17;;;;;;;;;;5063966;28;20059;-68
2023/01/01 06:03:18;;;;;;;24.30;3.33;;;;;;;;;;5078011;28;20052;-69
2023/01/01 06:05:45;;;;;;;25.23;3.60;;;;;;;;;;5087004;28;20044;-68
2023/01/01 06:08:14;;;;;;;27.38;3.78;;;;;;;;;;5083554;28;20044;-71
2023/01/01 06:10:41;;;;;;;27.63;3.88;;;;;;;;;;5083074;28;20079;-68
2023/01/01 06:13:09;;;;;;;18.33;2.80;;;;;;;;;;5062118;28;20043;-68
2023/01/01 06:15:36;;;;;;;22.58;2.97;;;;;;;;;;5085130;28;20044;-71
2023/01/01 06:18:03;;;;;;;23.25;3.17;;;;;;;;;;5083347;28;20055;-68
2023/01/01 06:20:30;;;;;;;29.60;4.55;;;;;;;;;;5086527;28;20664;-68
2023/01/01 06:22:58;;;;;;;17.88;2.40;;;;;;;;;;5082962;28;20074;-69
2023/01/01 06:25:26;;;;;;;25.08;3.65;;;;;;;;;;5082805;28;20082;-68
2023/01/01 06:27:53;;;;;;;30.15;2.95;;;;;;;;;;5078779;28;20048;-69
2023/01/01 06:30:21;;;;;;;32.85;4.20;;;;;;;;;;5083027;28;20048;-68
2023/01/01 06:32:48;;;;;;;24.95;3.75;;;;;;;;;;5084118;28;20313;-67
2023/01/01 06:35:15;;;;;;;19.45;2.80;;;;;;;;;;5084479;28;20047;-69
2023/01/01 06:37:42;;;;;;;31.15;3.53;;;;;;;;;;5083755;28;20052;-71
2023/01/01 06:40:10;;;;;;;25.92;3.28;;;;;;;;;;5079904;28;20047;-68
2023/01/01 06:42:39;;;;;;;26.98;4.00;;;;;;;;;;5077904;28;20105;-69
2023/01/01 06:45:06;;;;;;;22.42;2.70;;;;;;;;;;5081259;28;20059;-68
2023/01/01 06:47:35;;;;;;;32.33;4.03;;;;;;;;;;5080078;28;20055;-69
2023/01/01 06:50:02;;;;;;;28.25;4.20;;;;;;;;;;5080347;28;20155;-69
2023/01/01 06:52:29;;;;;;;22.20;3.22;;;;;;;;;;5083323;28;20048;-69
2023/01/01 06:54:56;;;;;;;28.55;3.67;;;;;;;;;;5085714;28;20052;-68
2023/01/01 06:57:24;;;;;;;22.88;3.67;;;;;;;;;;5084783;28;20691;-68
2023/01/01 06:59:53;;;;;;;29.33;3.67;;;;;;;;;;5070594;28;20056;-69
2023/01/01 07:02:20;;;;;;;27.48;3.72;;;;;;;;;;5089480;28;20048;-69
2023/01/01 07:04:47;;;;;;;26.48;3.25;;;;;;;;;;5087165;28;20055;-68
2023/01/01 07:07:14;;;;;;;27.30;3.60;;;;;;;;;;5078544;28;20044;-69
2023/01/01 07:09:42;;;;;;;28.95;4.45;;;;;;;;;;5061595;28;20044;-71
2023/01/01 07:12:09;;;;;;;36.53;4.45;;;;;;;;;;5082284;28;20051;-69
2023/01/01 07:14:36;;;;;;;37.35;4.10;;;;;;;;;;5082804;28;20056;-71
2023/01/01 07:17:05;;;;;;;27.70;3.92;;;;;;;;;;5086938;28;20048;-68
2023/01/01 07:19:32;;;;;;;34.22;4.00;;;;;;;;;;5089536;28;20046;-69
2023/01/01 07:21:59;;;;;;;36.72;4.53;;;;;;;;;;5085610;28;20067;-68
2023/01/01 07:24:26;;;;;;;33.97;4.25;;;;;;;;;;5084189;28;20045;-68
2023/01/01 07:26:54;;;;;;;32.63;4.30;;;;;;;;;;5080191;28;20044;-69
2023/01/01 07:29:21;;;;;;;36.53;4.05;;;;;;;;;;5084727;28;20066;-69
2023/01/01 07:31:48;;;;;;;30.40;4.57;;;;;;;;;;5085291;28;20047;-68
2023/01/01 07:34:18;;;;;;;36.95;4.28;;;;;;;;;;5085311;28;20044;-69
2023/01/01 07:36:46;;;;;;;30.77;4.45;;;;;;;;;;5082795;28;20533;-70
2023/01/01 07:39:13;;;;;;;27.40;4.25;;;;;;;;;;5088095;28;20044;-68
2023/01/01 07:41:40;;;;;;;34.97;4.38;;;;;;;;;;5082902;28;20799;-69
2023/01/01 07:44:07;;;;;;;38.13;4.45;;;;;;;;;;5076233;28;20048;-68
2023/01/01 07:46:35;;;;;;;29.42;4.88;;;;;;;;;;5081663;28;20048;-68
2023/01/01 07:49:03;;;;;;;27.02;3.58;;;;;;;;;;5080410;28;20051;-69
2023/01/01 07:51:31;;;;;;;36.33;4.65;;;;;;;;;;5063645;28;20052;-69
2023/01/01 07:53:59;;;;;;;38.13;4.35;;;;;;;;;;5085607;28;20308;-69
2023/01/01 07:56:26;;;;;;;31.67;4.20;;;;;;;;;;5059391;28;20044;-69
2023/01/01 07:58:53;;;;;;;31.33;5.10;;;;;;;;;;5085234;28;20482;-69
2023/01/01 08:01:20;;;;;;;30.63;4.03;;;;;;;;;;5064419;28;20064;-69
2023/01/01 08:03:52;;;;;;;36.58;4.65;;;;;;;;;;5083614;28;20494;-69
2023/01/01 08:06:21;;;;;;;44.65;4.75;;;;;;;;;;5079950;28;20385;-69
2023/01/01 08:08:49;;;;;;;29.73;4.60;;;;;;;;;;5082454;28;20056;-69
2023/01/01 08:11:16;;;;;;;40.72;5.50;;;;;;;;;;5068074;28;20489;-68
2023/01/01 08:13:44;;;;;;;31.38;4.70;;;;;;;;;;5083929;28;20047;-69
2023/01/01 08:16:11;;;;;;;40.70;6.05;;;;;;;;;;5069575;28;20044;-69
2023/01/01 08:18:38;;;;;;;35.05;3.83;;;;;;;;;;5086645;28;20051;-69
2023/01/01 08:21:06;;;;;;;36.42;5.15;;;;;;;;;;5085316;28;20509;-70
2023/01/01 08:23:33;;;;;;;42.72;4.28;;;;;;;;;;5085171;28;20117;-69
2023/01/01 08:26:02;;;;;;;33.33;4.15;;;;;;;;;;5086394;28;20378;-69
2023/01/01 08:28:30;;;;;;;41.67;4.90;;;;;;;;;;5084944;28;20060;-68
2023/01/01 08:30:58;;;;;;;43.10;5.00;;;;;;;;;;5085205;28;20177;-70
2023/01/01 08:33:25;;;;;;;38.00;4.45;;;;;;;;;;5066759;28;20083;-69
2023/01/01 08:35:52;;;;;;;43.83;4.38;;;;;;;;;;5089802;28;20052;-69
2023/01/01 08:38:19;;;;;;;48.63;6.22;;;;;;;;;;5087245;28;20449;-68
2023/01/01 08:40:47;;;;;;;35.83;6.15;;;;;;;;;;5088041;28;20059;-68
2023/01/01 08:43:15;;;;;;;33.97;4.40;;;;;;;;;;5081887;28;20059;-69
2023/01/01 08:45:44;;;;;;;43.85;6.53;;;;;;;;;;5085733;28;20064;-68
2023/01/01 08:48:11;;;;;;;42.03;5.97;;;;;;;;;;5086591;28;20044;-69
2023/01/01 08:50:38;;;;;;;36.78;4.80;;;;;;;;;;5081537;28;20036;-69
2023/01/01 08:53:06;;;;;;;40.80;5.78;;;;;;;;;;5077986;28;20052;-69
2023/01/01 08:55:33;;;;;;;47.42;5.68;;;;;;;;;;5069376;28;20048;-71
2023/01/01 08:58:00;;;;;;;35.75;4.65;;;;;;;;;;5085382;28;20043;-69
2023/01/01 09:00:29;;;;;;;41.05;5.13;;;;;;;;;;5083835;28;20059;-69
2023/01/01 09:02:56;;;;;;;45.63;5.60;;;;;;;;;;5082518;28;20055;-69
2023/01/01 09:05:23;;;;;;;40.78;5.40;;;;;;;;;;5086172;28;20040;-70
2023/01/01 09:07:50;;;;;;;38.88;5.05;;;;;;;;;;5086526;28;20040;-69
2023/01/01 09:10:17;;;;;;;39.90;5.28;;;;;;;;;;5066537;28;20051;-68
2023/01/01 09:12:45;;;;;;;42.22;5.65;;;;;;;;;;5080032;28;20044;-69
2023/01/01 09:15:15;;;;;;;46.45;5.18;;;;;;;;;;5082515;28;20135;-69
2023/01/01 09:17:45;;;;;;;45.10;6.68;;;;;;;;;;5080587;28;20059;-69
2023/01/01 09:20:12;;;;;;;42.47;5.40;;;;;;;;;;5085301;28;20052;-69
2023/01/01 09:22:39;;;;;;;35.47;4.60;;;;;;;;;;5082557;28;20142;-71
2023/01/01 09:25:06;;;;;;;32.88;5.15;;;;;;;;;;5083988;28;20055;-70
2023/01/01 09:27:34;;;;;;;33.22;4.95;;;;;;;;;;5081720;28;20055;-69
2023/01/01 09:30:01;;;;;;;32.58;4.53;;;;;;;;;;5086902;28;20047;-69
2023/01/01 09:32:28;;;;;;;35.35;4.93;;;;;;;;;;5085106;28;20519;-69
2023/01/01 09:34:59;;;;;;;37.63;4.30;;;;;;;;;;5084015;28;20052;-69
2023/01/01 09:37:26;;;;;;;48.88;5.95;;;;;;;;;;5086187;28;20056;-69
2023/01/01 09:39:54;;;;;;;39.45;5.57;;;;;;;;;;5086282;28;20044;-70
2023/01/01 09:42:30;;;;;;;40.72;4.90;;;;;;;;;;5080148;28;20111;-69
2023/01/01 09:45:14;;;;;;;42.38;5.43;;;;;;;;;;5082826;28;20075;-69
2023/01/01 09:47:43;;;;;;;51.42;6.07;;;;;;;;;;5081934;28;20486;-69
2023/01/01 09:50:15;;;;;;;34.63;4.75;;;;;;;;;;5084640;28;20689;-69
2023/01/01 09:52:46;;;;;;;40.73;4.67;;;;;;;;;;5084709;28;20134;-68
2023/01/01 09:55:17;;;;;;;39.33;5.82;;;;;;;;;;5086066;28;20177;-69
2023/01/01 09:57:44;;;;;;;42.53;5.30;;;;;;;;;;5075846;28;20052;-69
2023/01/01 10:00:15;;;;;;;41.38;4.85;;;;;;;;;;5083254;28;20048;-69
2023/01/01 10:02:48;;;;;;;39.50;5.28;;;;;;;;;;5083545;28;20686;-70
2023/01/01 10:05:22;;;;;;;37.90;5.50;;;;;;;;;;5086621;28;20044;-69
2023/01/01 10:07:49;;;;;;;;;;;;;;;;;;5085420;28;20052;-69
2023/01/01 10:10:22;;;;;;;33.25;4.45;;;;;;;;;;5083892;28;20453;-70
2023/01/01 10:12:55;;;;;;;38.15;4.75;;;;;;;;;;5081483;28;20044;-69
2023/01/01 10:15:24;;;;;;;30.10;4.40;;;;;;;;;;5084126;28;20658;-70
2023/01/01 10:17:54;;;;;;;38.22;5.88;;;;;;;;;;5075158;28;20297;-69
2023/01/01 10:20:24;;;;;;;34.45;4.40;;;;;;;;;;5080225;28;20070;-70
2023/01/01 10:22:53;;;;;;;34.88;4.68;;;;;;;;;;5083540;28;20063;-69
2023/01/01 10:25:22;;;;;;;32.38;4.40;;;;;;;;;;5081896;28;20051;-69
2023/01/01 10:27:51;;;;;;;29.63;4.80;;;;;;;;;;5081721;28;20050;-70
2023/01/01 10:30:20;;;;;;;32.33;4.32;;;;;;;;;;5085982;28;20441;-69
2023/01/01 10:32:48;;;;;;;25.95;4.00;;;;;;;;;;5092603;28;20055;-69
2023/01/01 10:35:16;;;;;;;36.15;5.05;;;;;;;;;;5086859;28;20050;-70
2023/01/01 10:37:45;;;;;;;31.45;4.10;;;;;;;;;;5085433;28;20056;-69
2023/01/01 10:40:17;;;;;;;34.95;4.28;;;;;;;;;;5079983;28;20071;-71
2023/01/01 10:42:46;;;;;;;24.52;4.00;;;;;;;;;;5077537;28;20051;-71
2023/01/01 10:45:14;;;;;;;38.15;4.32;;;;;;;;;;5079062;28;20055;-72
2023/01/01 10:48:02;;;;;;;36.80;4.70;;;;;;;;;;5060853;28;20055;-70
2023/01/01 10:50:41;;;;;;;29.70;3.80;;;;;;;;;;5083355;28;20048;-69
2023/01/01 10:53:19;;;;;;;28.52;3.40;;;;;;;;;;5084972;28;20048;-71
2023/01/01 10:55:49;;;;;;;37.13;4.25;;;;;;;;;;5080974;28;20602;-70
2023/01/01 10:58:26;;;;;;;32.60;4.53;;;;;;;;;;5082562;28;20706;-70
2023/01/01 11:00:58;;;;;;;31.58;3.70;;;;;;;;;;5061007;28;20056;-70
2023/01/01 11:03:26;;;;;;;23.97;3.47;;;;;;;;;;5074421;28;20044;-70
2023/01/01 11:06:03;;;;;;;30.15;4.05;;;;;;;;;;5082837;28;20105;-69
2023/01/01 11:08:33;;;;;;;31.52;4.38;;;;;;;;;;5083467;28;20048;-69
2023/01/01 11:11:01;;;;;;;30.48;4.05;;;;;;;;;;5063589;28;20051;-72
2023/01/01 11:13:29;;;;;;;31.98;5.00;;;;;;;;;;5084791;28;20048;-69
2023/01/01 11:15:56;;;;;;;28.30;4.10;;;;;;;;;;5081075;28;20674;-69
2023/01/01 11:18:25;;;;;;;30.58;4.47;;;;;;;;;;5077170;28;20040;-70
2023/01/01 11:20:53;;;;;;;25.77;4.20;;;;;;;;;;5083120;28;20383;-70
2023/01/01 11:23:27;;;;;;;28.88;3.88;;;;;;;;;;5084747;28;20052;-70
2023/01/01 11:25:59;;;;;;;29.33;4.70;;;;;;;;;;5077706;28;20048;-68
2023/01/01 11:28:30;;;;;;;28.02;3.63;;;;;;;;;;5075394;28;20060;-71
2023/01/01 11:31:02;;;;;;;27.15;4.05;;;;;;;;;;5077399;28;20123;-69
2023/01/01 11:33:30;;;;;;;31.60;3.53;;;;;;;;;;5055366;28;20047;-71
2023/01/01 11:35:57;;;;;;;31.48;3.58;;;;;;;;;;5081496;28;20397;-69
2023/01/01 11:38:25;;;;;;;30.30;4.10;;;;;;;;;;5063993;28;20047;-70
2023/01/01 11:40:54;;;;;;;35.95;4.68;;;;;;;;;;5079226;28;20048;-70
2023/01/01 11:43:23;;;;;;;24.70;4.00;;;;;;;;;;5079396;28;20044;-69
2023/01/01 11:45:51;;;;;;;32.78;4.60;;;;;;;;;;5082616;28;20077;-70
2023/01/01 11:48:21;;;;;;;30.00;3.53;;;;;;;;;;5082959;28;20048;-69
2023/01/01 11:50:50;;;;;;;31.63;4.05;;;;;;;;;;5082774;28;20037;-69
2023/01/01 11:53:19;;;;;;;32.55;3.53;;;;;;;;;;5080782;28;20056;-70
2023/01/01 11:55:47;;;;;;;30.45;3.83;;;;;;;;;;5065956;28;20056;-70
2023/01/01 11:58:16;;;;;;;34.08;3.97;;;;;;;;;;5084927;28;20048;-69
2023/01/01 12:00:46;;;;;;;28.58;3.55;;;;;;;;;;5064174;28;20486;-69
2023/01/01 12:03:19;;;;;;;21.00;3.88;;;;;;;;;;5081108;28;20040;-71
2023/01/01 12:05:49;;;;;;;31.05;3.95;;;;;;;;;;5085274;28;20043;-69
2023/01/01 12:08:21;;;;;;;26.73;4.20;;;;;;;;;;5077953;28;20052;-70
2023/01/01 12:10:51;;;;;;;30.27;3.88;;;;;;;;;;5081498;28;20040;-70
2023/01/01 12:13:20;;;;;;;28.38;3.80;;;;;;;;;;5087715;28;20047;-69
2023/01/01 12:15:52;;;;;;;24.75;3.65;;;;;;;;;;5079377;28;20052;-71
2023/01/01 12:18:22;;;;;;;34.83;3.60;;;;;;;;;;5086056;28;20048;-70
2023/01/01 12:20:53;;;;;;;28.65;3.25;;;;;;;;;;5082935;28;20060;-70
2023/01/01 12:23:20;;;;;;;39.03;4.80;;;;;;;;;;5086164;28;20075;-70
2023/01/01 12:25:55;;;;;;;28.67;4.90;;;;;;;;;;5082298;28;20075;-71
2023/01/01 12:28:29;;;;;;;31.58;3.47;;;;;;;;;;5076968;28;20056;-70
2023/01/01 12:31:04;;;;;;;28.35;3.65;;;;;;;;;;5086033;28;20052;-70
2023/01/01 12:33:39;;;;;;;30.27;4.22;;;;;;;;;;5087461;28;20048;-71
2023/01/01 12:36:11;;;;;;;26.35;3.33;;;;;;;;;;5085289;28;20131;-70
2023/01/01 12:38:48;;;;;;;30.05;3.42;;;;;;;;;;5085005;28;20054;-69
2023/01/01 12:41:24;;;;;;;26.70;4.72;;;;;;;;;;5083299;28;20123;-69
2023/01/01 12:43:54;;;;;;;31.17;4.20;;;;;;;;;;5061129;28;20041;-70
2023/01/01 12:46:36;;;;;;;35.45;3.38;;;;;;;;;;5068546;28;20060;-69
2023/01/01 12:49:31;;;;;;;29.02;3.47;;;;;;;;;;5081413;28;20050;-70
2023/01/01 12:52:03;;;;;;;24.15;3.67;;;;;;;;;;5065355;28;20058;-70
2023/01/01 12:54:45;;;;;;;30.58;3.53;;;;;;;;;;5087500;28;20067;-69
2023/01/01 12:57:15;;;;;;;30.65;3.85;;;;;;;;;;5025890;28;20087;-69
2023/01/01 12:59:46;;;;;;;25.38;3.38;;;;;;;;;;5084049;28;20056;-71
2023/01/01 13:02:14;;;;;;;36.05;3.97;;;;;;;;;;5082717;28;20434;-70
2023/01/01 13:04:44;;;;;;;25.88;3.17;;;;;;;;;;5081190;28;20052;-70
2023/01/01 13:07:13;;;;;;;29.80;4.30;;;;;;;;;;5063702;28;20379;-69
2023/01/01 13:09:43;;;;;;;29.33;3.50;;;;;;;;;;5081471;28;20052;-69
2023/01/01 13:12:13;;;;;;;30.50;4.03;;;;;;;;;;5082664;28;20058;-69
2023/01/01 13:14:41;;;;;;;33.97;3.90;;;;;;;;;;5085115;28;20052;-69
2023/01/01 13:17:18;;;;;;;27.50;3.38;;;;;;;;;;5075721;28;20056;-70
2023/01/01 13:19:47;;;;;;;30.15;3.05;;;;;;;;;;5084947;28;20038;-69
2023/01/01 13:22:38;;;;;;;26.73;3.40;;;;;;;;;;5082209;28;20050;-69
2023/01/01 13:25:06;;;;;;;25.00;3.03;;;;;;;;;;5066540;28;20073;-69
2023/01/01 13:27:51;;;;;;;20.38;3.28;;;;;;;;;;5081944;28;20501;-69
2023/01/01 13:30:36;;;;;;;32.35;3.97;;;;;;;;;;5062869;28;20048;-70
2023/01/01 13:33:28;;;;;;;30.60;4.38;;;;;;;;;;5080209;28;20414;-72
2023/01/01 13:36:14;;;;;;;33.55;4.55;;;;;;;;;;5082288;28;20047;-70
2023/01/01 13:38:49;;;;;;;26.10;3.42;;;;;;;;;;5082011;28;20569;-69
2023/01/01 13:41:34;;;;;;;31.27;3.67;;;;;;;;;;5079292;28;20047;-69
2023/01/01 13:44:20;;;;;;;26.00;3.58;;;;;;;;;;5082899;28;20048;-70
2023/01/01 13:47:11;;;;;;;31.45;3.35;;;;;;;;;;5084258;28;20051;-69
2023/01/01 13:49:46;;;;;;;20.33;2.80;;;;;;;;;;5062047;28;20048;-71
2023/01/01 13:52:21;;;;;;;27.08;3.55;;;;;;;;;;5071813;28;20059;-70
2023/01/01 13:55:08;;;;;;;23.45;3.40;;;;;;;;;;5081492;28;20040;-69
2023/01/01 13:57:59;;;;;;;27.80;3.65;;;;;;;;;;5078613;28;20052;-69
2023/01/01 14:00:30;;;;;;;25.17;3.50;;;;;;;;;;5009840;28;20050;-69
2023/01/01 14:03:00;;;;;;;21.08;3.53;;;;;;;;;;5073057;28;20048;-69
2023/01/01 14:05:29;;;;;;;27.10;3.70;;;;;;;;;;5077661;28;20076;-70
2023/01/01 14:07:57;;;;;;;25.55;2.72;;;;;;;;;;5081967;28;20052;-69
2023/01/01 14:10:27;;;;;;;22.08;3.05;;;;;;;;;;5070205;28;20064;-69
2023/01/01 14:12:56;;;;;;;33.25;3.92;;;;;;;;;;5081162;28;20376;-69
2023/01/01 14:15:24;;;;;;;29.35;3.92;;;;;;;;;;5075923;28;20056;-69
2023/01/01 14:17:52;;;;;;;29.63;3.45;;;;;;;;;;5064448;28;20059;-72
2023/01/01 14:20:20;;;;;;;28.63;3.55;;;;;;;;;;5063866;28;20071;-70
2023/01/01 14:22:48;;;;;;;29.95;4.47;;;;;;;;;;5083252;28;20074;-69
2023/01/01 14:25:16;;;;;;;33.20;3.95;;;;;;;;;;5083527;28;20043;-69
2023/01/01 14:27:45;;;;;;;31.13;3.85;;;;;;;;;;5077940;28;20048;-70
2023/01/01 14:30:16;;;;;;;31.45;3.97;;;;;;;;;;5079861;28;20051;-70
2023/01/01 14:32:44;;;;;;;26.25;3.47;;;;;;;;;;5069374;28;20466;-71
2023/01/01 14:35:15;;;;;;;32.63;4.07;;;;;;;;;;5085951;28;20143;-69
2023/01/01 14:37:42;;;;;;;22.42;3.60;;;;;;;;;;5060535;28;20580;-69
2023/01/01 14:40:16;;;;;;;29.27;4.35;;;;;;;;;;5076301;28;20091;-69
2023/01/01 14:42:46;;;;;;;30.75;4.57;;;;;;;;;;5081035;28;20625;-70
2023/01/01 14:45:16;;;;;;;28.05;3.70;;;;;;;;;;5079293;28;20048;-70
2023/01/01 14:47:47;;;;;;;27.55;3.70;;;;;;;;;;5078565;28;20059;-69
2023/01/01 14:50:17;;;;;;;31.45;3.22;;;;;;;;;;5084488;28;20052;-71